Weather at Victoriaville Airport

Public forecast

Using degrees Celsius for public forecast. Weather courtesy of forecast.io.

Closest aviation weather report (METAR) to Victoriaville Airport

Closest report is Trois-Rivières Airport, 34.3 nm (63.5 km) WNW.

2024/07/15 10:00 (retrieved 37 minutes ago)

CYRQ 151000Z AUTO 21007KT 9SM CLR 20/19 A2977 RMK SLP081 DENSITY ALT 1100FT

Closest aviation forecast (TAF) to Victoriaville Airport

Closest forecast is Trois-Rivières Airport, 34.3 nm (63.5 km) WNW.

2024/07/15 08:00 (retrieved 3 hours ago)

TAF CYRQ 150740Z 1508/1520 21006KT P6SM SCT120 BKN240 FM151600 20010KT P6SM SCT040 BKN240 RMK FCST BASED ON AUTO OBS NXT FCST BY 151400Z